createdAt,value
2022-07-28T00:01:43.607Z,67256.84
2022-07-28T00:06:48.783Z,67256.97
2022-07-28T00:11:54.949Z,67218.06
2022-07-28T00:16:59.825Z,67242.91
2022-07-28T00:22:06.438Z,67298.44
2022-07-28T00:27:10.228Z,67242.88
2022-07-28T00:32:14.095Z,67256.97
2022-07-28T00:37:20.553Z,67234.34
2022-07-28T00:42:24.627Z,67219.16
2022-07-28T00:47:33.773Z,67232.13
2022-07-28T00:52:39.592Z,67227.72
2022-07-28T00:57:43.531Z,67206.75
2022-07-28T01:02:47.519Z,67203.50
2022-07-28T01:08:02.119Z,67082.47
2022-07-28T01:13:15.414Z,67155.41
2022-07-28T01:18:22.263Z,67172.25
2022-07-28T01:23:56.569Z,67189.94
2022-07-28T01:29:10.792Z,67184.56
2022-07-28T01:34:21.343Z,67118.22
2022-07-28T01:39:30.429Z,66995.69
2022-07-28T01:44:39.307Z,66908.91
2022-07-28T01:49:46.742Z,66917.69
2022-07-28T01:54:52.214Z,66909.47
2022-07-28T01:59:58.123Z,66960.72
2022-07-28T02:05:04.513Z,67013.44
2022-07-28T02:10:11.058Z,66959.66
2022-07-28T02:15:16.450Z,67008.03
2022-07-28T02:20:22.254Z,66981.22
2022-07-28T02:25:31.122Z,66910.16
2022-07-28T02:30:39.698Z,66916.00
2022-07-28T02:35:50.646Z,66903.13
2022-07-28T02:40:57.635Z,66887.97
2022-07-28T02:46:07.172Z,66927.41
2022-07-28T02:51:14.972Z,66894.91
2022-07-28T02:56:19.265Z,66888.44
2022-07-28T03:01:24.907Z,66940.34
2022-07-28T03:06:30.611Z,66934.88
2022-07-28T03:11:34.516Z,66998.53
2022-07-28T03:16:38.394Z,67075.47
2022-07-28T03:21:43.641Z,67069.06
2022-07-28T03:26:53.993Z,66974.75
2022-07-28T03:31:59.829Z,66960.34
2022-07-28T03:37:12.929Z,66932.72
2022-07-28T03:42:19.097Z,66940.19
2022-07-28T03:47:24.113Z,67014.09
2022-07-28T03:52:29.328Z,66960.28
2022-07-28T03:57:33.070Z,66954.13
2022-07-28T04:02:36.996Z,66955.34
2022-07-28T04:07:43.077Z,67002.19
2022-07-28T04:12:51.691Z,67034.59
2022-07-28T04:17:57.428Z,67105.25
2022-07-28T04:23:02.730Z,67049.72
2022-07-28T04:28:06.684Z,67023.88
2022-07-28T04:33:12.979Z,67004.94
2022-07-28T04:38:18.261Z,67040.00
2022-07-28T04:43:23.487Z,67155.41
2022-07-28T04:48:27.872Z,67036.31
2022-07-28T04:53:33.122Z,67027.59
2022-07-28T04:58:37.131Z,67003.31
2022-07-28T05:03:40.888Z,67008.66
2022-07-28T05:08:46.051Z,67003.78
2022-07-28T05:13:49.867Z,67028.06
2022-07-28T05:18:53.821Z,67030.22
2022-07-28T05:23:58.912Z,67027.66
2022-07-28T05:29:03.250Z,67106.81
2022-07-28T05:34:07.253Z,67096.16
2022-07-28T05:39:12.676Z,67260.88
2022-07-28T05:44:18.368Z,67298.03
2022-07-28T05:49:23.923Z,67158.69
2022-07-28T05:54:29.428Z,67228.28
2022-07-28T05:59:33.663Z,67131.16
2022-07-28T06:04:37.534Z,67048.09
2022-07-28T06:09:45.230Z,67124.16
2022-07-28T06:14:49.097Z,67009.19
2022-07-28T06:19:53.115Z,66948.41
2022-07-28T06:24:58.224Z,67033.06
2022-07-28T06:30:02.056Z,67070.69
2022-07-28T06:35:09.524Z,67042.16
2022-07-28T06:40:18.865Z,67075.59
2022-07-28T06:45:26.005Z,67102.50
2022-07-28T06:50:33.521Z,67127.91
2022-07-28T06:55:42.121Z,67201.47
2022-07-28T07:00:56.256Z,67159.22
2022-07-28T07:06:01.032Z,67150.06
2022-07-28T07:11:06.589Z,67347.19
2022-07-28T07:16:10.215Z,67200.25
2022-07-28T07:21:14.246Z,67177.06
2022-07-28T07:26:19.396Z,67155.47
2022-07-28T07:31:23.235Z,67240.22
2022-07-28T07:36:26.980Z,67331.66
2022-07-28T07:41:32.169Z,67469.38
2022-07-28T07:46:37.260Z,67459.59
2022-07-28T07:51:41.138Z,67459.53
2022-07-28T07:56:46.224Z,67391.50
2022-07-28T08:01:54.624Z,67392.47
2022-07-28T08:06:58.379Z,67400.22
2022-07-28T08:12:04.129Z,67618.66
2022-07-28T08:17:07.861Z,67463.97
2022-07-28T08:22:11.676Z,67492.09
2022-07-28T08:27:17.061Z,67380.63
2022-07-28T08:32:20.917Z,67431.47
2022-07-28T08:37:24.605Z,67543.00
2022-07-28T08:42:38.525Z,67506.66
2022-07-28T08:48:07.292Z,67616.59
2022-07-28T08:53:09.015Z,67673.44
2022-07-28T08:58:14.522Z,67722.66
2022-07-28T09:03:18.554Z,67848.53
2022-07-28T09:08:22.537Z,67930.91
2022-07-28T09:13:27.682Z,67917.25
2022-07-28T09:18:31.514Z,68058.44
2022-07-28T09:23:46.177Z,67829.56
2022-07-28T09:28:55.648Z,67849.50
2022-07-28T09:34:03.993Z,67920.06
2022-07-28T09:39:08.239Z,67868.56
2022-07-28T09:44:19.574Z,67712.34
2022-07-28T09:49:28.493Z,67682.06
2022-07-28T09:54:36.141Z,67797.38
2022-07-28T09:59:47.101Z,67744.88
2022-07-28T10:04:57.646Z,67827.84
2022-07-28T10:10:03.976Z,67715.72
2022-07-28T10:15:30.878Z,67676.19
2022-07-28T10:20:35.511Z,67831.19
2022-07-28T10:25:42.136Z,67909.28
2022-07-28T10:30:50.284Z,67853.28
2022-07-28T10:35:55.691Z,67806.69
2022-07-28T10:41:02.693Z,67780.72
2022-07-28T10:46:11.835Z,67880.94
2022-07-28T10:51:21.975Z,67753.66
2022-07-28T10:56:42.620Z,67772.00
2022-07-28T11:01:49.725Z,67865.72
2022-07-28T11:07:10.951Z,67808.91
2022-07-28T11:12:15.529Z,67924.34
2022-07-28T11:17:24.390Z,67839.28
2022-07-28T11:22:36.609Z,67892.91
2022-07-28T11:28:05.030Z,67918.38
2022-07-28T11:33:11.132Z,68192.00
2022-07-28T11:38:16.056Z,68158.81
2022-07-28T11:43:37.720Z,68301.25
2022-07-28T11:48:45.645Z,68476.91
2022-07-28T11:53:51.126Z,68698.50
2022-07-28T11:58:58.684Z,68676.63
2022-07-28T12:04:13.283Z,68149.63
2022-07-28T12:09:21.915Z,67980.19
2022-07-28T12:14:30.353Z,68312.63
2022-07-28T12:19:35.465Z,68356.66
2022-07-28T12:24:45.611Z,68233.91
2022-07-28T12:29:58.876Z,68153.38
2022-07-28T12:35:04.454Z,68112.22
2022-07-28T12:40:10.866Z,68134.88
2022-07-28T12:45:14.779Z,68222.38
2022-07-28T12:50:20.909Z,68091.97
2022-07-28T12:55:27.888Z,68110.44
2022-07-28T13:00:34.218Z,68079.06
2022-07-28T13:05:57.910Z,68269.75
2022-07-28T13:11:01.778Z,68462.19
2022-07-28T13:16:12.434Z,68583.03
2022-07-28T13:21:17.580Z,68438.28
2022-07-28T13:26:21.369Z,68535.59
2022-07-28T13:31:25.178Z,68497.56
2022-07-28T13:36:30.443Z,68640.69
2022-07-28T13:41:57.583Z,68582.50
2022-07-28T13:46:59.611Z,68406.16
2022-07-28T13:52:06.903Z,68389.81
2022-07-28T13:57:17.250Z,68564.47
2022-07-28T14:02:21.628Z,68683.19
2022-07-28T14:07:31.275Z,68520.91
2022-07-28T14:12:37.439Z,68549.25
2022-07-28T14:17:43.291Z,68646.13
2022-07-28T14:22:50.467Z,68630.91
2022-07-28T14:27:55.742Z,68556.84
2022-07-28T14:32:59.548Z,68339.22
2022-07-28T14:38:51.185Z,68107.78
2022-07-28T14:43:32.627Z,67907.50
2022-07-28T14:48:36.473Z,67990.03
2022-07-28T14:53:50.057Z,67998.56
2022-07-28T14:58:55.891Z,68015.47
2022-07-28T15:03:59.812Z,68124.63
2022-07-28T15:09:06.759Z,68402.31
2022-07-28T15:14:10.372Z,68457.28
2022-07-28T15:19:14.130Z,68492.63
2022-07-28T15:24:19.445Z,68344.09
2022-07-28T15:29:23.729Z,68242.50
2022-07-28T15:34:27.393Z,68122.50
2022-07-28T15:39:32.558Z,67981.84
2022-07-28T15:44:37.445Z,67959.63
2022-07-28T15:49:41.661Z,68006.81
2022-07-28T15:54:46.848Z,67837.00
2022-07-28T15:59:50.955Z,67931.94
2022-07-28T16:04:54.925Z,67947.63
2022-07-28T16:10:00.081Z,67898.78
2022-07-28T16:15:03.988Z,67877.69
2022-07-28T16:20:10.238Z,67827.25
2022-07-28T16:25:17.720Z,67794.88
2022-07-28T16:30:21.724Z,67833.22
2022-07-28T16:35:25.946Z,67800.13
2022-07-28T16:40:32.641Z,67755.69
2022-07-28T16:45:38.357Z,67842.97
2022-07-28T16:50:43.397Z,67870.66
2022-07-28T16:55:49.081Z,67879.28
2022-07-28T17:00:53.045Z,67851.69
2022-07-28T17:05:57.138Z,67853.31
2022-07-28T17:11:02.815Z,67832.75
2022-07-28T17:16:07.336Z,67809.94
2022-07-28T17:21:13.229Z,67793.59
2022-07-28T17:31:43.539Z,67804.47
2022-07-28T17:36:48.411Z,67759.59
2022-07-28T17:41:54.739Z,67707.53
2022-07-28T17:46:59.223Z,67710.19
2022-07-28T17:52:05.120Z,67731.84
2022-07-28T17:57:10.431Z,67761.13
2022-07-28T18:02:15.280Z,67708.63
2022-07-28T18:07:19.884Z,67665.31
2022-07-28T18:12:24.957Z,67655.97
2022-07-28T18:17:33.033Z,67692.81
2022-07-28T18:22:36.845Z,67655.53
2022-07-28T18:27:41.903Z,67683.19
2022-07-28T18:32:45.769Z,67605.16
2022-07-28T18:37:50.371Z,67607.78
2022-07-28T18:42:55.942Z,67592.75
2022-07-28T18:48:00.536Z,67571.63
2022-07-28T18:53:04.466Z,67560.28
2022-07-28T18:58:10.595Z,67545.59
2022-07-28T19:03:14.604Z,67562.88
2022-07-28T19:08:18.576Z,67546.13
2022-07-28T19:13:23.710Z,67538.00
2022-07-28T19:18:27.439Z,67532.06
2022-07-28T19:23:31.412Z,67523.47
2022-07-28T19:28:36.572Z,67474.78
2022-07-28T19:33:44.069Z,67439.56
2022-07-28T19:38:47.997Z,67436.34
2022-07-28T19:43:53.436Z,67400.09
2022-07-28T19:48:57.403Z,67362.19
2022-07-28T19:54:01.277Z,67374.22
2022-07-28T19:59:07.716Z,67362.28
2022-07-28T20:04:11.705Z,67373.63
2022-07-28T20:09:16.773Z,67386.53
2022-07-28T20:14:21.904Z,67381.78
2022-07-28T20:19:25.684Z,67406.59
2022-07-28T20:24:29.673Z,67378.53
2022-07-28T20:29:34.947Z,67398.47
2022-07-28T20:34:38.610Z,67409.75
2022-07-28T20:39:45.239Z,67443.91
2022-07-28T20:44:51.421Z,67465.47
2022-07-28T20:49:55.676Z,67479.59
2022-07-28T20:54:59.399Z,67461.19
2022-07-28T21:00:07.242Z,67465.09
2022-07-28T21:05:20.183Z,67452.56
2022-07-28T21:10:30.541Z,67432.50
2022-07-28T21:15:35.622Z,67385.03
2022-07-28T21:20:39.339Z,67370.91
2022-07-28T21:25:45.239Z,67341.19
2022-07-28T21:30:50.283Z,67322.66
2022-07-28T21:35:53.884Z,67322.94
2022-07-28T21:40:58.270Z,67330.84
2022-07-28T21:46:03.489Z,67312.53
2022-07-28T21:51:15.700Z,67332.06
2022-07-28T21:56:22.685Z,67307.75
2022-07-28T22:01:28.332Z,67361.06
2022-07-28T22:06:32.252Z,67335.25
2022-07-28T22:11:35.971Z,67301.75
2022-07-28T22:16:41.110Z,67288.78
2022-07-28T22:21:44.749Z,67252.66
2022-07-28T22:26:52.422Z,67265.09
2022-07-28T22:31:59.392Z,67251.56
2022-07-28T22:37:11.192Z,67227.72
2022-07-28T22:42:16.899Z,67221.72
2022-07-28T22:47:22.004Z,67263.38
2022-07-28T22:52:26.872Z,67252.59
2022-07-28T22:57:30.558Z,67283.91
2022-07-28T23:02:35.803Z,67236.84
2022-07-28T23:07:52.967Z,67213.63
2022-07-28T23:13:01.305Z,67221.25
2022-07-28T23:18:06.413Z,67221.84
2022-07-28T23:23:10.639Z,67207.69
2022-07-28T23:28:14.349Z,67202.28
2022-07-28T23:33:55.945Z,67166.78
2022-07-28T23:38:43.508Z,67201.34
2022-07-28T23:43:51.074Z,67229.84
2022-07-28T23:48:56.264Z,67208.84
2022-07-28T23:54:00.075Z,67214.75
2022-07-28T23:59:03.718Z,67194.81
